createdAt,value
2023-03-26T00:01:49.908Z,7.90
2023-03-26T00:04:19.863Z,7.90
2023-03-26T00:06:48.880Z,7.90
2023-03-26T00:09:17.392Z,7.80
2023-03-26T00:11:46.284Z,7.40
2023-03-26T00:14:17.909Z,7.30
2023-03-26T00:16:47.671Z,7.20
2023-03-26T00:19:16.850Z,7.20
2023-03-26T00:21:44.862Z,7.20
2023-03-26T00:24:16.283Z,7.30
2023-03-26T00:26:48.493Z,7.30
2023-03-26T00:29:18.656Z,7.30
2023-03-26T00:31:47.022Z,7.40
2023-03-26T00:34:18.319Z,7.40
2023-03-26T00:36:47.369Z,7.40
2023-03-26T00:39:17.745Z,7.40
2023-03-26T00:41:45.806Z,7.40
2023-03-26T00:44:13.882Z,7.50
2023-03-26T00:46:43.373Z,7.50
2023-03-26T00:49:14.694Z,7.50
2023-03-26T00:51:43.232Z,7.40
2023-03-26T00:54:11.158Z,7.40
2023-03-26T00:56:39.167Z,7.40
2023-03-26T00:59:09.231Z,7.40
2023-03-26T01:01:37.762Z,7.40
2023-03-26T01:04:31.955Z,7.40
2023-03-26T01:07:03.952Z,7.40
2023-03-26T01:09:38.219Z,7.40
2023-03-26T01:12:09.738Z,7.40
2023-03-26T01:14:38.481Z,7.40
2023-03-26T01:17:09.243Z,7.40
2023-03-26T01:19:45.400Z,7.40
2023-03-26T01:22:16.489Z,7.50
2023-03-26T01:24:52.808Z,7.50
2023-03-26T01:27:32.265Z,7.50
2023-03-26T01:30:08.027Z,7.50
2023-03-26T01:32:52.017Z,7.60
2023-03-26T01:35:28.175Z,7.50
2023-03-26T01:38:10.701Z,7.50
2023-03-26T01:40:47.022Z,7.50
2023-03-26T01:43:22.254Z,7.60
2023-03-26T01:45:52.508Z,7.60
2023-03-26T01:48:21.105Z,7.50
2023-03-26T01:50:53.563Z,7.50
2023-03-26T01:53:21.759Z,7.50
2023-03-26T01:56:03.901Z,7.50
2023-03-26T01:58:37.985Z,7.40
2023-03-26T02:01:17.296Z,7.50
2023-03-26T02:03:51.116Z,7.50
2023-03-26T02:06:25.752Z,7.50
2023-03-26T02:08:57.973Z,7.50
2023-03-26T02:11:35.429Z,7.40
2023-03-26T02:14:06.136Z,7.50
2023-03-26T02:16:34.430Z,7.50
2023-03-26T02:19:02.731Z,7.60
2023-03-26T02:21:33.977Z,7.60
2023-03-26T02:24:04.084Z,7.50
2023-03-26T02:26:35.688Z,7.50
2023-03-26T02:29:03.872Z,7.50
2023-03-26T02:31:31.840Z,7.50
2023-03-26T02:33:59.849Z,7.50
2023-03-26T02:36:28.414Z,7.50
2023-03-26T02:38:58.144Z,7.50
2023-03-26T02:41:26.268Z,7.50
2023-03-26T02:43:55.741Z,7.60
2023-03-26T02:46:23.760Z,7.60
2023-03-26T02:48:51.738Z,7.60
2023-03-26T02:51:20.189Z,7.70
2023-03-26T02:53:48.495Z,7.70
2023-03-26T02:56:16.442Z,7.70
2023-03-26T02:58:44.383Z,7.70
2023-03-26T03:01:18.309Z,7.80
2023-03-26T03:03:48.505Z,7.70
2023-03-26T03:06:17.248Z,7.70
2023-03-26T03:08:46.066Z,7.70
2023-03-26T03:11:16.670Z,7.60
2023-03-26T03:13:45.715Z,7.60
2023-03-26T03:16:15.142Z,7.60
2023-03-26T03:18:43.100Z,7.60
2023-03-26T03:21:11.048Z,7.50
2023-03-26T03:23:39.149Z,7.50
2023-03-26T03:26:14.341Z,7.60
2023-03-26T03:28:42.459Z,7.60
2023-03-26T03:31:10.427Z,7.60
2023-03-26T03:33:41.443Z,7.60
2023-03-26T03:36:20.139Z,7.60
2023-03-26T03:38:49.313Z,7.50
2023-03-26T03:41:18.686Z,7.50
2023-03-26T03:43:46.968Z,7.50
2023-03-26T03:46:15.008Z,7.50
2023-03-26T03:48:49.505Z,7.50
2023-03-26T03:51:18.270Z,7.40
2023-03-26T03:53:47.279Z,7.40
2023-03-26T03:56:17.548Z,7.50
2023-03-26T03:58:47.312Z,7.50
2023-03-26T04:01:16.861Z,7.50
2023-03-26T04:03:47.167Z,7.50
2023-03-26T04:06:19.028Z,7.60
2023-03-26T04:08:47.490Z,7.60
2023-03-26T04:11:15.840Z,7.60
2023-03-26T04:13:43.836Z,7.60
2023-03-26T04:16:12.235Z,7.50
2023-03-26T04:18:40.659Z,7.60
2023-03-26T04:21:12.740Z,7.50
2023-03-26T04:23:42.327Z,7.50
2023-03-26T04:26:16.227Z,7.50
2023-03-26T04:28:47.319Z,7.40
2023-03-26T04:31:24.076Z,7.30
2023-03-26T04:33:55.164Z,7.30
2023-03-26T04:36:28.886Z,7.30
2023-03-26T04:38:58.615Z,7.40
2023-03-26T04:41:27.230Z,7.40
2023-03-26T04:43:55.464Z,7.40
2023-03-26T04:46:23.887Z,7.30
2023-03-26T04:48:53.094Z,7.30
2023-03-26T04:51:25.310Z,7.40
2023-03-26T04:53:57.851Z,7.40
2023-03-26T04:56:37.534Z,7.40
2023-03-26T04:59:06.111Z,7.40
2023-03-26T05:01:37.874Z,7.40
2023-03-26T05:04:06.304Z,7.50
2023-03-26T05:06:34.902Z,7.50
2023-03-26T05:09:04.683Z,7.50
2023-03-26T05:11:32.623Z,7.50
2023-03-26T05:14:00.570Z,7.50
2023-03-26T05:16:29.735Z,7.50
2023-03-26T05:18:57.687Z,7.40
2023-03-26T05:21:25.833Z,7.40
2023-03-26T05:23:53.774Z,7.40
2023-03-26T05:26:23.205Z,7.30
2023-03-26T05:28:52.697Z,7.20
2023-03-26T05:31:22.286Z,7.20
2023-03-26T05:33:50.672Z,7.20
2023-03-26T05:36:19.162Z,7.20
2023-03-26T05:38:49.632Z,7.10
2023-03-26T05:41:18.336Z,7.20
2023-03-26T05:43:49.001Z,7.20
2023-03-26T05:46:18.081Z,7.30
2023-03-26T05:48:46.668Z,7.30
2023-03-26T05:51:15.532Z,7.30
2023-03-26T05:53:43.745Z,7.30
2023-03-26T05:56:12.131Z,7.40
2023-03-26T05:58:42.004Z,7.40
2023-03-26T06:01:17.038Z,7.40
2023-03-26T06:03:46.900Z,7.50
2023-03-26T06:06:16.608Z,7.50
2023-03-26T06:08:46.852Z,7.50
2023-03-26T06:11:14.841Z,7.50
2023-03-26T06:13:43.059Z,7.50
2023-03-26T06:16:27.788Z,7.60
2023-03-26T06:18:57.591Z,7.70
2023-03-26T06:21:25.956Z,7.70
2023-03-26T06:23:54.056Z,7.70
2023-03-26T06:26:22.491Z,7.80
2023-03-26T06:28:50.593Z,7.80
2023-03-26T06:31:20.163Z,7.80
2023-03-26T06:33:48.778Z,7.80
2023-03-26T06:36:16.886Z,7.80
2023-03-26T06:38:44.817Z,7.80
2023-03-26T06:41:13.038Z,7.80
2023-03-26T06:43:41.348Z,7.90
2023-03-26T06:46:10.547Z,8.00
2023-03-26T06:48:39.967Z,8.00
2023-03-26T06:51:08.378Z,8.00
2023-03-26T06:53:36.594Z,8.00
2023-03-26T06:56:05.347Z,8.10
2023-03-26T06:58:34.085Z,8.00
2023-03-26T07:01:02.155Z,8.10
2023-03-26T07:03:30.531Z,8.10
2023-03-26T07:05:59.845Z,8.10
2023-03-26T07:08:28.046Z,8.10
2023-03-26T07:10:56.207Z,8.20
2023-03-26T07:13:24.407Z,8.20
2023-03-26T07:15:52.428Z,8.20
2023-03-26T07:18:20.471Z,8.30
2023-03-26T07:20:48.887Z,8.30
2023-03-26T07:23:20.622Z,8.20
2023-03-26T07:25:49.703Z,8.20
2023-03-26T07:28:26.745Z,8.20
2023-03-26T07:31:05.559Z,8.20
2023-03-26T07:33:40.424Z,8.10
2023-03-26T07:36:20.499Z,8.20
2023-03-26T07:39:04.353Z,8.20
2023-03-26T07:41:41.300Z,8.20
2023-03-26T07:44:28.295Z,8.30
2023-03-26T07:46:57.222Z,8.30
2023-03-26T07:49:25.666Z,8.20
2023-03-26T07:51:54.340Z,8.30
2023-03-26T07:54:24.333Z,8.40
2023-03-26T07:56:58.738Z,8.50
2023-03-26T07:59:32.823Z,8.50
2023-03-26T08:02:24.515Z,8.40
2023-03-26T08:05:10.216Z,8.50
2023-03-26T08:07:53.002Z,8.50
2023-03-26T08:10:28.372Z,8.50
2023-03-26T08:13:03.082Z,8.50
2023-03-26T08:15:37.921Z,8.60
2023-03-26T08:18:16.985Z,8.60
2023-03-26T08:20:48.912Z,8.70
2023-03-26T08:23:24.937Z,8.70
2023-03-26T08:26:02.528Z,8.70
2023-03-26T08:28:55.307Z,8.80
2023-03-26T08:31:33.363Z,8.90
2023-03-26T08:34:01.652Z,9.00
2023-03-26T08:36:29.810Z,8.90
2023-03-26T08:38:59.483Z,8.80
2023-03-26T08:42:12.359Z,8.70
2023-03-26T08:45:14.197Z,8.80
2023-03-26T08:48:04.803Z,8.80
2023-03-26T08:51:00.155Z,8.80
2023-03-26T08:53:51.082Z,8.80
2023-03-26T08:56:25.922Z,8.80
2023-03-26T08:59:26.954Z,8.80
2023-03-26T09:02:31.082Z,8.80
2023-03-26T09:05:36.351Z,8.90
2023-03-26T09:08:53.737Z,8.90
2023-03-26T09:11:56.139Z,8.90
2023-03-26T09:15:12.560Z,9.00
2023-03-26T09:18:02.118Z,9.00
2023-03-26T09:21:06.005Z,9.00
2023-03-26T09:24:07.567Z,9.10
2023-03-26T09:26:47.500Z,9.10
2023-03-26T09:29:48.207Z,9.00
2023-03-26T09:32:51.736Z,9.00
2023-03-26T09:35:54.518Z,9.00
2023-03-26T09:38:42.844Z,9.00
2023-03-26T09:41:16.878Z,9.00
2023-03-26T09:44:25.918Z,9.00
2023-03-26T09:47:08.032Z,9.00
2023-03-26T09:49:52.509Z,9.00
2023-03-26T09:52:47.577Z,8.90
2023-03-26T09:55:30.545Z,8.90
2023-03-26T09:58:16.535Z,8.90
2023-03-26T10:00:50.978Z,8.80
2023-03-26T10:03:31.146Z,8.70
2023-03-26T10:06:11.663Z,8.70
2023-03-26T10:09:05.886Z,8.60
2023-03-26T10:11:49.187Z,8.60
2023-03-26T10:14:25.680Z,8.70
2023-03-26T10:17:05.930Z,8.70
2023-03-26T10:19:52.329Z,8.60
2023-03-26T10:22:35.972Z,8.60
2023-03-26T10:25:29.840Z,8.60
2023-03-26T10:28:25.411Z,8.60
2023-03-26T10:31:07.150Z,8.50
2023-03-26T10:33:44.827Z,8.40
2023-03-26T10:36:29.680Z,8.50
2023-03-26T10:39:36.354Z,8.60
2023-03-26T10:42:23.079Z,8.60
2023-03-26T10:45:16.459Z,8.50
2023-03-26T10:48:29.111Z,8.50
2023-03-26T10:51:18.090Z,8.60
2023-03-26T10:53:50.606Z,8.60
2023-03-26T10:56:29.483Z,8.50
2023-03-26T10:58:57.946Z,8.50
2023-03-26T11:01:36.305Z,8.40
2023-03-26T11:04:19.230Z,8.40
2023-03-26T11:06:55.355Z,8.30
2023-03-26T11:09:34.656Z,8.20
2023-03-26T11:12:25.628Z,8.00
2023-03-26T11:15:07.797Z,8.00
2023-03-26T11:17:47.898Z,8.00
2023-03-26T11:20:19.452Z,8.00
2023-03-26T11:23:01.868Z,7.90
2023-03-26T11:25:37.895Z,7.80
2023-03-26T11:28:18.823Z,7.80
2023-03-26T11:30:54.513Z,7.80
2023-03-26T11:33:27.121Z,7.90
2023-03-26T11:36:04.623Z,7.90
2023-03-26T11:38:37.604Z,8.00
2023-03-26T11:41:13.207Z,8.00
2023-03-26T11:43:42.668Z,8.00
2023-03-26T11:46:14.648Z,8.10
2023-03-26T11:48:47.405Z,8.20
2023-03-26T11:51:21.364Z,8.40
2023-03-26T11:53:49.745Z,8.50
2023-03-26T11:56:27.182Z,8.60
2023-03-26T11:59:01.321Z,8.70
2023-03-26T12:01:44.147Z,8.70
2023-03-26T12:04:15.759Z,8.70
2023-03-26T12:06:53.880Z,8.70
2023-03-26T12:09:21.864Z,8.80
2023-03-26T12:11:50.798Z,8.80
2023-03-26T12:14:23.390Z,8.70
2023-03-26T12:17:03.778Z,8.70
2023-03-26T12:19:39.352Z,8.70
2023-03-26T12:22:27.294Z,8.80
2023-03-26T12:25:04.227Z,8.80
2023-03-26T12:27:33.175Z,8.80
2023-03-26T12:30:12.431Z,8.90
2023-03-26T12:32:46.640Z,8.90
2023-03-26T12:35:18.723Z,8.80
2023-03-26T12:37:47.725Z,8.90
2023-03-26T12:40:32.497Z,8.90
2023-03-26T12:44:56.159Z,8.90
2023-03-26T12:47:54.578Z,9.00
2023-03-26T12:48:43.961Z,8.90
2023-03-26T12:51:20.223Z,8.80
2023-03-26T12:54:01.589Z,8.90
2023-03-26T12:56:36.900Z,9.10
2023-03-26T12:59:24.353Z,9.00
2023-03-26T13:02:02.672Z,9.00
2023-03-26T13:05:02.313Z,9.00
2023-03-26T13:07:54.877Z,9.00
2023-03-26T13:10:42.979Z,9.00
2023-03-26T13:13:23.481Z,9.00
2023-03-26T13:15:53.795Z,9.00
2023-03-26T13:18:33.829Z,9.20
2023-03-26T13:21:11.698Z,9.20
2023-03-26T13:23:48.011Z,9.20
2023-03-26T13:26:35.680Z,9.30
2023-03-26T13:29:12.500Z,9.50
2023-03-26T13:31:46.173Z,9.50
2023-03-26T13:34:23.995Z,9.60
2023-03-26T13:37:04.186Z,9.70
2023-03-26T13:39:38.781Z,9.90
2023-03-26T13:42:18.857Z,10.00
2023-03-26T13:45:05.178Z,10.00
2023-03-26T13:47:37.710Z,10.30
2023-03-26T13:50:16.264Z,10.40
2023-03-26T13:52:49.282Z,10.40
2023-03-26T13:55:27.036Z,10.30
2023-03-26T13:58:01.958Z,10.30
2023-03-26T14:00:47.955Z,10.20
2023-03-26T14:03:25.054Z,10.10
2023-03-26T14:05:57.496Z,10.00
2023-03-26T14:08:32.928Z,10.00
2023-03-26T14:11:10.889Z,10.00
2023-03-26T14:13:46.727Z,10.10
2023-03-26T14:16:19.447Z,10.10
2023-03-26T14:18:56.121Z,10.20
2023-03-26T14:21:45.372Z,10.10
2023-03-26T14:24:41.598Z,10.10
2023-03-26T14:27:34.225Z,10.10
2023-03-26T14:30:30.025Z,10.00
2023-03-26T14:33:13.632Z,9.90
2023-03-26T14:35:50.321Z,9.80
2023-03-26T14:39:05.483Z,9.70
2023-03-26T14:41:46.384Z,9.60
2023-03-26T14:44:48.018Z,9.50
2023-03-26T14:47:18.996Z,9.40
2023-03-26T14:50:21.613Z,9.50
2023-03-26T14:52:51.721Z,9.50
2023-03-26T14:55:48.579Z,9.40
2023-03-26T14:58:50.750Z,9.50
2023-03-26T15:01:27.129Z,9.40
2023-03-26T15:04:23.973Z,9.40
2023-03-26T15:07:27.728Z,9.50
2023-03-26T15:10:23.736Z,9.50
2023-03-26T15:13:13.534Z,9.60
2023-03-26T15:16:12.776Z,9.60
2023-03-26T15:19:16.846Z,9.70
2023-03-26T15:22:02.723Z,9.70
2023-03-26T15:25:25.462Z,9.70
2023-03-26T15:28:35.964Z,9.70
2023-03-26T15:31:47.530Z,9.80
2023-03-26T15:34:54.725Z,9.80
2023-03-26T15:37:58.727Z,9.90
2023-03-26T15:40:45.120Z,9.80
2023-03-26T15:43:16.173Z,9.60
2023-03-26T15:45:48.115Z,9.60
2023-03-26T15:48:45.372Z,9.60
2023-03-26T15:51:47.624Z,9.60
2023-03-26T15:54:25.474Z,9.60
2023-03-26T15:57:16.833Z,9.60
2023-03-26T15:59:59.235Z,9.60
2023-03-26T16:02:40.103Z,9.60
2023-03-26T16:05:38.135Z,9.70
2023-03-26T16:08:18.926Z,9.70
2023-03-26T16:10:52.606Z,9.70
2023-03-26T16:13:38.781Z,9.70
2023-03-26T16:16:23.488Z,9.70
2023-03-26T16:18:58.970Z,9.70
2023-03-26T16:21:39.867Z,9.70
2023-03-26T16:24:21.216Z,9.70
2023-03-26T16:27:02.720Z,9.80
2023-03-26T16:29:31.010Z,9.80
2023-03-26T16:32:28.840Z,9.70
2023-03-26T16:35:00.183Z,9.60
2023-03-26T16:37:39.817Z,9.50
2023-03-26T16:40:30.042Z,9.40
2023-03-26T16:43:10.653Z,9.40
2023-03-26T16:45:45.956Z,9.40
2023-03-26T16:48:23.846Z,9.40
2023-03-26T16:50:57.630Z,9.30
2023-03-26T16:53:38.564Z,9.30
2023-03-26T16:56:15.904Z,9.30
2023-03-26T16:58:55.161Z,9.30
2023-03-26T17:01:35.683Z,9.30
2023-03-26T17:04:11.658Z,9.20
2023-03-26T17:07:01.773Z,9.20
2023-03-26T17:09:37.802Z,9.20
2023-03-26T17:12:15.658Z,9.20
2023-03-26T17:15:00.972Z,9.10
2023-03-26T17:17:46.217Z,9.10
2023-03-26T17:20:26.594Z,9.00
2023-03-26T17:23:05.896Z,8.90
2023-03-26T17:25:38.371Z,8.90
2023-03-26T17:28:28.802Z,8.90
2023-03-26T17:31:04.348Z,8.80
2023-03-26T17:33:34.770Z,8.80
2023-03-26T17:36:32.258Z,8.80
2023-03-26T17:39:20.882Z,8.70
2023-03-26T17:41:57.133Z,8.60
2023-03-26T17:44:41.548Z,8.50
2023-03-26T17:47:23.499Z,8.50
2023-03-26T17:49:56.161Z,8.40
2023-03-26T17:52:30.844Z,8.40
2023-03-26T17:54:59.871Z,8.40
2023-03-26T17:57:33.068Z,8.30
2023-03-26T18:00:03.719Z,8.20
2023-03-26T18:02:36.882Z,8.20
2023-03-26T18:05:09.142Z,8.30
2023-03-26T18:08:14.697Z,8.20
2023-03-26T18:11:07.860Z,8.10
2023-03-26T18:14:09.478Z,8.10
2023-03-26T18:16:40.177Z,8.10
2023-03-26T18:19:18.424Z,8.00
2023-03-26T18:21:50.127Z,8.00
2023-03-26T18:24:24.452Z,8.00
2023-03-26T18:26:58.370Z,7.90
2023-03-26T18:29:28.480Z,7.80
2023-03-26T18:32:00.384Z,7.70
2023-03-26T18:34:31.804Z,7.80
2023-03-26T18:37:16.411Z,7.80
2023-03-26T18:39:59.029Z,7.80
2023-03-26T18:42:28.111Z,7.70
2023-03-26T18:45:00.277Z,7.70
2023-03-26T18:47:31.020Z,7.60
2023-03-26T18:50:00.180Z,7.60
2023-03-26T18:52:31.196Z,7.60
2023-03-26T18:55:02.754Z,7.50
2023-03-26T18:57:31.438Z,7.50
2023-03-26T19:00:18.726Z,7.50
2023-03-26T19:02:49.717Z,7.40
2023-03-26T19:05:19.793Z,7.40
2023-03-26T19:07:48.342Z,7.30
2023-03-26T19:10:22.035Z,7.40
2023-03-26T19:12:56.659Z,7.30
2023-03-26T19:15:25.555Z,7.40
2023-03-26T19:17:59.779Z,7.30
2023-03-26T19:20:30.667Z,7.30
2023-03-26T19:22:59.055Z,7.20
2023-03-26T19:25:33.749Z,7.20
2023-03-26T19:28:01.768Z,7.20
2023-03-26T19:30:33.466Z,7.20
2023-03-26T19:33:12.799Z,7.10
2023-03-26T19:35:42.678Z,7.10
2023-03-26T19:38:25.728Z,7.00
2023-03-26T19:40:57.029Z,7.00
2023-03-26T19:43:25.869Z,7.00
2023-03-26T19:46:00.112Z,6.90
2023-03-26T19:48:45.629Z,6.80
2023-03-26T19:51:21.252Z,6.80
2023-03-26T19:53:52.995Z,6.60
2023-03-26T19:56:23.503Z,6.40
2023-03-26T19:58:51.979Z,6.30
2023-03-26T20:01:22.140Z,6.30
2023-03-26T20:03:52.746Z,6.20
2023-03-26T20:09:11.907Z,6.00
2023-03-26T20:11:41.309Z,6.00
2023-03-26T20:14:15.246Z,5.90
2023-03-26T20:16:45.399Z,5.90
2023-03-26T20:19:14.323Z,6.00
2023-03-26T20:21:42.933Z,5.90
2023-03-26T20:24:14.626Z,5.80
2023-03-26T20:26:44.530Z,5.80
2023-03-26T20:29:13.048Z,5.80
2023-03-26T20:31:42.560Z,5.80
2023-03-26T20:34:17.479Z,5.80
2023-03-26T20:36:46.692Z,5.70
2023-03-26T20:39:15.287Z,5.70
2023-03-26T20:41:48.478Z,5.70
2023-03-26T20:44:18.385Z,5.80
2023-03-26T20:46:50.239Z,5.80
2023-03-26T20:49:18.906Z,5.70
2023-03-26T20:51:47.698Z,5.60
2023-03-26T20:54:18.768Z,5.70
2023-03-26T20:56:49.123Z,5.70
2023-03-26T20:59:22.254Z,5.60
2023-03-26T21:01:51.785Z,5.60
2023-03-26T21:04:20.268Z,5.60
2023-03-26T21:06:48.771Z,5.50
2023-03-26T21:09:22.502Z,5.50
2023-03-26T21:12:01.911Z,5.50
2023-03-26T21:14:34.308Z,5.50
2023-03-26T21:17:02.791Z,5.50
2023-03-26T21:19:31.210Z,5.60
2023-03-26T21:22:10.620Z,5.50
2023-03-26T21:24:50.676Z,5.50
2023-03-26T21:27:26.899Z,5.60
2023-03-26T21:29:55.455Z,5.50
2023-03-26T21:32:24.264Z,5.40
2023-03-26T21:34:58.458Z,5.40
2023-03-26T21:37:28.303Z,5.40
2023-03-26T21:39:56.693Z,5.30
2023-03-26T21:42:29.352Z,5.30
2023-03-26T21:44:57.967Z,5.30
2023-03-26T21:47:26.482Z,5.20
2023-03-26T21:49:55.144Z,5.10
2023-03-26T21:52:23.928Z,5.10
2023-03-26T21:54:52.830Z,5.10
2023-03-26T21:57:43.615Z,5.20
2023-03-26T22:00:16.343Z,5.10
2023-03-26T22:02:59.676Z,5.10
2023-03-26T22:05:33.828Z,5.00
2023-03-26T22:08:03.215Z,5.00
2023-03-26T22:10:32.734Z,4.90
2023-03-26T22:13:02.055Z,4.90
2023-03-26T22:15:31.078Z,4.70
2023-03-26T22:18:02.131Z,4.70
2023-03-26T22:20:30.248Z,4.70
2023-03-26T22:22:59.093Z,4.50
2023-03-26T22:25:27.561Z,4.60
2023-03-26T22:27:57.609Z,4.60
2023-03-26T22:30:27.295Z,4.60
2023-03-26T22:32:55.760Z,4.70
2023-03-26T22:35:23.792Z,4.60
2023-03-26T22:37:52.581Z,4.60
2023-03-26T22:40:28.464Z,4.60
2023-03-26T22:42:56.644Z,4.50
2023-03-26T22:45:26.070Z,4.50
2023-03-26T22:47:54.142Z,4.40
2023-03-26T22:50:32.231Z,4.40
2023-03-26T22:53:00.488Z,4.40
2023-03-26T22:55:29.829Z,4.30
2023-03-26T22:57:58.122Z,4.30
2023-03-26T23:00:27.722Z,4.30
2023-03-26T23:03:00.237Z,4.20
2023-03-26T23:05:29.347Z,4.10
2023-03-26T23:07:57.866Z,4.10
2023-03-26T23:10:25.779Z,4.00
2023-03-26T23:12:53.881Z,3.90
2023-03-26T23:15:22.137Z,3.90
2023-03-26T23:17:54.797Z,3.80
2023-03-26T23:20:23.220Z,3.70
2023-03-26T23:22:51.369Z,3.70
2023-03-26T23:25:19.900Z,3.60
2023-03-26T23:27:48.418Z,3.60
2023-03-26T23:30:16.837Z,3.50
2023-03-26T23:32:44.813Z,3.50
2023-03-26T23:35:14.127Z,3.50
2023-03-26T23:37:42.473Z,3.50
2023-03-26T23:40:12.488Z,3.60
2023-03-26T23:42:40.750Z,3.60
2023-03-26T23:45:09.492Z,3.60
2023-03-26T23:47:42.242Z,3.50
2023-03-26T23:50:11.569Z,3.50
2023-03-26T23:52:41.003Z,3.50
2023-03-26T23:55:09.747Z,3.40
2023-03-26T23:57:37.779Z,3.50
